createdAt,value
2022-09-17T00:02:25.651Z,93383.16
2022-09-17T00:04:52.274Z,93377.16
2022-09-17T00:07:19.209Z,93381.75
2022-09-17T00:09:45.910Z,93376.28
2022-09-17T00:12:13.559Z,93376.22
2022-09-17T00:14:41.134Z,93381.59
2022-09-17T00:17:07.780Z,93369.16
2022-09-17T00:19:34.452Z,93357.72
2022-09-17T00:22:01.149Z,93359.97
2022-09-17T00:24:28.699Z,93352.81
2022-09-17T00:26:55.450Z,93355.59
2022-09-17T00:29:22.199Z,93352.47
2022-09-17T00:31:48.927Z,93338.25
2022-09-17T00:34:15.838Z,93346.72
2022-09-17T00:36:42.798Z,93348.78
2022-09-17T00:39:11.348Z,93360.28
2022-09-17T00:41:39.260Z,93350.34
2022-09-17T00:44:43.407Z,93350.13
2022-09-17T00:47:16.492Z,93351.44
2022-09-17T00:49:43.699Z,93351.97
2022-09-17T00:52:24.469Z,93350.84
2022-09-17T00:54:58.676Z,93349.25
2022-09-17T00:57:25.636Z,93352.47
2022-09-17T00:59:52.519Z,93348.53
2022-09-17T01:02:19.419Z,93351.94
2022-09-17T01:04:46.150Z,93355.81
2022-09-17T01:07:20.667Z,93351.31
2022-09-17T01:10:02.470Z,93352.88
2022-09-17T01:12:48.227Z,93349.00
2022-09-17T01:15:22.623Z,93349.16
2022-09-17T01:18:00.334Z,93342.97
2022-09-17T01:21:21.119Z,93352.16
2022-09-17T01:24:06.073Z,93355.25
2022-09-17T01:27:03.807Z,93360.13
2022-09-17T01:29:59.415Z,93355.56
2022-09-17T01:32:43.080Z,93352.88
2022-09-17T01:35:26.066Z,93353.38
2022-09-17T01:37:58.789Z,93345.50
2022-09-17T01:40:48.741Z,93344.00
2022-09-17T01:43:38.779Z,93344.22
2022-09-17T01:46:19.391Z,93359.78
2022-09-17T01:48:47.748Z,93354.81
2022-09-17T01:51:20.419Z,93356.38
2022-09-17T01:53:58.202Z,93348.09
2022-09-17T01:56:31.811Z,93349.06
2022-09-17T01:59:03.099Z,93341.03
2022-09-17T02:01:32.906Z,93347.03
2022-09-17T02:04:04.434Z,93347.97
2022-09-17T02:06:34.799Z,93347.97
2022-09-17T02:09:06.198Z,93355.13
2022-09-17T02:11:37.238Z,93353.78
2022-09-17T02:14:08.558Z,93360.81
2022-09-17T02:16:37.746Z,93357.03
2022-09-17T02:19:23.798Z,93348.91
2022-09-17T02:22:18.167Z,93343.03
2022-09-17T02:25:00.664Z,93340.53
2022-09-17T02:27:39.596Z,93335.56
2022-09-17T02:30:06.755Z,93331.47
2022-09-17T02:32:33.858Z,93335.25
2022-09-17T02:35:00.569Z,93349.06
2022-09-17T02:37:27.908Z,93336.31
2022-09-17T02:39:55.013Z,93323.56
2022-09-17T02:42:28.018Z,93312.22
2022-09-17T02:45:36.498Z,93300.69
2022-09-17T02:48:05.919Z,93301.00
2022-09-17T02:50:36.229Z,93282.75
2022-09-17T02:53:20.750Z,93285.78
2022-09-17T02:55:59.438Z,93287.28
2022-09-17T02:58:54.578Z,93275.38
2022-09-17T03:01:30.349Z,93272.38
2022-09-17T03:04:00.171Z,93286.81
2022-09-17T03:06:27.550Z,93290.66
2022-09-17T03:08:54.209Z,93280.88
2022-09-17T03:11:21.730Z,93284.31
2022-09-17T03:13:48.837Z,93283.31
2022-09-17T03:16:15.635Z,93267.59
2022-09-17T03:18:43.090Z,93265.59
2022-09-17T03:21:10.625Z,93261.63
2022-09-17T03:23:37.494Z,93259.31
2022-09-17T03:26:04.186Z,93251.75
2022-09-17T03:28:30.928Z,93254.63
2022-09-17T03:30:57.645Z,93282.16
2022-09-17T03:33:24.376Z,93276.34
2022-09-17T03:35:51.069Z,93281.94
2022-09-17T03:38:17.858Z,93278.16
2022-09-17T03:40:44.606Z,93298.13
2022-09-17T03:43:11.368Z,93302.53
2022-09-17T03:45:38.078Z,93298.59
2022-09-17T03:48:04.861Z,93291.44
2022-09-17T03:50:31.690Z,93279.28
2022-09-17T03:52:58.468Z,93285.69
2022-09-17T03:55:25.188Z,93289.44
2022-09-17T03:57:51.888Z,93283.25
2022-09-17T04:00:18.661Z,93291.28
2022-09-17T04:02:45.482Z,93307.91
2022-09-17T04:05:12.291Z,93307.50
2022-09-17T04:07:41.078Z,93297.19
2022-09-17T04:10:08.692Z,93299.81
2022-09-17T04:12:35.488Z,93306.25
2022-09-17T04:15:02.550Z,93288.47
2022-09-17T04:17:29.221Z,93282.72
2022-09-17T04:19:55.846Z,93276.50
2022-09-17T04:22:22.421Z,93268.94
2022-09-17T04:24:49.032Z,93269.50
2022-09-17T04:27:15.845Z,93268.00
2022-09-17T04:29:42.501Z,93273.13
2022-09-17T04:32:09.220Z,93279.72
2022-09-17T04:34:35.748Z,93299.16
2022-09-17T04:37:02.472Z,93316.41
2022-09-17T04:39:29.067Z,93325.13
2022-09-17T04:41:55.625Z,93331.41
2022-09-17T04:44:22.871Z,93323.63
2022-09-17T04:46:49.539Z,93336.41
2022-09-17T04:49:16.295Z,93339.91
2022-09-17T04:51:42.932Z,93337.47
2022-09-17T04:54:09.603Z,93338.09
2022-09-17T04:56:36.205Z,93322.13
2022-09-17T04:59:02.923Z,93315.28
2022-09-17T05:01:29.653Z,93310.03
2022-09-17T05:03:56.331Z,93334.41
2022-09-17T05:06:22.903Z,93348.06
2022-09-17T05:08:49.499Z,93347.94
2022-09-17T05:11:16.138Z,93360.72
2022-09-17T05:13:42.688Z,93363.41
2022-09-17T05:16:09.384Z,93355.63
2022-09-17T05:18:36.058Z,93358.31
2022-09-17T05:21:02.870Z,93356.09
2022-09-17T05:23:29.633Z,93350.63
2022-09-17T05:26:00.521Z,93355.72
2022-09-17T05:28:28.004Z,93349.50
2022-09-17T05:30:54.688Z,93353.72
2022-09-17T05:33:21.331Z,93347.28
2022-09-17T05:35:47.979Z,93357.19
2022-09-17T05:38:14.544Z,93349.19
2022-09-17T05:40:41.435Z,93343.66
2022-09-17T05:43:08.010Z,93335.28
2022-09-17T05:45:35.339Z,93330.31
2022-09-17T05:48:02.622Z,93328.28
2022-09-17T05:50:29.734Z,93351.22
2022-09-17T05:52:56.462Z,93352.34
2022-09-17T05:55:23.872Z,93343.44
2022-09-17T05:57:50.992Z,93341.94
2022-09-17T06:00:17.935Z,93330.63
2022-09-17T06:02:44.771Z,93328.38
2022-09-17T06:05:11.641Z,93314.59
2022-09-17T06:07:38.974Z,93314.59
2022-09-17T06:10:08.339Z,93313.03
2022-09-17T06:12:38.284Z,93322.66
2022-09-17T06:15:05.352Z,93312.53
2022-09-17T06:17:36.053Z,93323.06
2022-09-17T06:20:04.618Z,93326.94
2022-09-17T06:22:31.334Z,93318.66
2022-09-17T06:24:59.876Z,93301.91
2022-09-17T06:27:36.241Z,93302.47
2022-09-17T06:30:03.004Z,93288.78
2022-09-17T06:32:29.926Z,93302.13
2022-09-17T06:34:57.413Z,93296.47
2022-09-17T06:37:32.435Z,93301.84
2022-09-17T06:39:59.589Z,93292.31
2022-09-17T06:42:26.662Z,93269.72
2022-09-17T06:44:53.223Z,93285.00
2022-09-17T06:47:20.074Z,93286.97
2022-09-17T06:49:46.678Z,93277.53
2022-09-17T06:52:13.327Z,93280.75
2022-09-17T06:54:40.290Z,93289.94
2022-09-17T06:57:06.841Z,93275.16
2022-09-17T06:59:33.556Z,93284.59
2022-09-17T07:02:00.321Z,93300.25
2022-09-17T07:04:27.091Z,93311.13
2022-09-17T07:06:53.852Z,93317.25
2022-09-17T07:09:20.474Z,93330.25
2022-09-17T07:11:47.173Z,93326.53
2022-09-17T07:14:13.804Z,93332.91
2022-09-17T07:16:40.495Z,93350.75
2022-09-17T07:19:08.140Z,93378.59
2022-09-17T07:21:35.900Z,93398.81
2022-09-17T07:24:02.710Z,93435.53
2022-09-17T07:26:29.462Z,93464.16
2022-09-17T07:28:56.121Z,93449.84
2022-09-17T07:31:23.689Z,93434.03
2022-09-17T07:33:50.581Z,93439.69
2022-09-17T07:36:20.299Z,93429.88
2022-09-17T07:38:47.276Z,93421.84
2022-09-17T07:41:15.864Z,93399.13
2022-09-17T07:43:43.345Z,93413.59
2022-09-17T07:46:18.691Z,93428.06
2022-09-17T07:48:47.082Z,93435.84
2022-09-17T07:51:22.218Z,93423.28
2022-09-17T07:53:51.966Z,93402.88
2022-09-17T07:56:18.547Z,93407.88
2022-09-17T07:58:45.194Z,93377.97
2022-09-17T08:01:13.050Z,93379.16
2022-09-17T08:03:40.181Z,93391.50
2022-09-17T08:06:12.780Z,93400.44
2022-09-17T08:08:40.272Z,93404.13
2022-09-17T08:11:09.783Z,93405.63
2022-09-17T08:13:36.690Z,93412.00
2022-09-17T08:16:06.182Z,93426.94
2022-09-17T08:18:33.545Z,93431.78
2022-09-17T08:21:01.424Z,93429.41
2022-09-17T08:23:29.413Z,93431.31
2022-09-17T08:25:58.333Z,93434.56
2022-09-17T08:28:27.262Z,93433.25
2022-09-17T08:30:54.729Z,93433.69
2022-09-17T08:33:21.694Z,93437.44
2022-09-17T08:35:53.201Z,93453.75
2022-09-17T08:38:20.610Z,93466.09
2022-09-17T08:41:10.623Z,93471.75
2022-09-17T08:43:45.353Z,93487.31
2022-09-17T08:46:12.281Z,93496.59
2022-09-17T08:49:05.440Z,93497.16
2022-09-17T08:51:59.809Z,93486.50
2022-09-17T08:54:35.708Z,93485.75
2022-09-17T08:57:21.800Z,93491.63
2022-09-17T09:00:03.903Z,93485.88
2022-09-17T09:02:49.441Z,93492.34
2022-09-17T09:05:47.052Z,93488.66
2022-09-17T09:08:29.249Z,93485.38
2022-09-17T09:10:58.889Z,93467.34
2022-09-17T09:13:31.800Z,93469.06
2022-09-17T09:16:23.220Z,93489.47
2022-09-17T09:19:23.150Z,93475.88
2022-09-17T09:22:19.990Z,93474.91
2022-09-17T09:25:00.333Z,93491.69
2022-09-17T09:27:38.661Z,93511.25
2022-09-17T09:30:09.397Z,93508.16
2022-09-17T09:33:14.410Z,93507.25
2022-09-17T09:35:44.974Z,93514.38
2022-09-17T09:38:37.879Z,93519.00
2022-09-17T09:41:12.079Z,93515.41
2022-09-17T09:44:03.250Z,93498.19
2022-09-17T09:46:51.856Z,93503.50
2022-09-17T09:49:30.163Z,93514.09
2022-09-17T09:52:20.331Z,93519.00
2022-09-17T09:54:59.019Z,93499.47
2022-09-17T09:57:42.599Z,93486.84
2022-09-17T10:00:29.048Z,93479.97
2022-09-17T10:03:20.538Z,93485.94
2022-09-17T10:05:57.892Z,93508.72
2022-09-17T10:08:25.571Z,93518.31
2022-09-17T10:11:04.605Z,93514.66
2022-09-17T10:13:33.772Z,93519.13
2022-09-17T10:16:22.081Z,93522.38
2022-09-17T10:18:51.418Z,93515.22
2022-09-17T10:21:42.185Z,93515.38
2022-09-17T10:24:30.128Z,93524.31
2022-09-17T10:27:06.589Z,93528.69
2022-09-17T10:29:34.352Z,93533.28
2022-09-17T10:32:01.576Z,93528.09
2022-09-17T10:34:31.059Z,93508.56
2022-09-17T10:36:58.640Z,93507.38
2022-09-17T10:39:34.176Z,93519.84
2022-09-17T10:42:03.251Z,93521.53
2022-09-17T10:44:32.811Z,93525.94
2022-09-17T10:47:22.482Z,93524.47
2022-09-17T10:50:19.445Z,93521.44
2022-09-17T10:52:51.963Z,93522.22
2022-09-17T10:55:33.444Z,93505.13
2022-09-17T10:58:00.118Z,93498.47
2022-09-17T11:00:27.061Z,93493.94
2022-09-17T11:03:28.312Z,93501.31
2022-09-17T11:06:27.151Z,93498.22
2022-09-17T11:08:53.922Z,93501.56
2022-09-17T11:11:29.751Z,93502.72
2022-09-17T11:14:11.782Z,93509.03
2022-09-17T11:16:47.656Z,93512.88
2022-09-17T11:19:36.537Z,93517.75
2022-09-17T11:22:06.070Z,93524.81
2022-09-17T11:24:48.502Z,93526.00
2022-09-17T11:27:27.357Z,93522.03
2022-09-17T11:30:09.530Z,93513.63
2022-09-17T11:33:02.560Z,93523.66
2022-09-17T11:35:37.851Z,93521.28
2022-09-17T11:38:19.710Z,93513.16
2022-09-17T11:40:53.892Z,93501.31
2022-09-17T11:43:27.140Z,93476.94
2022-09-17T11:45:56.932Z,93461.56
2022-09-17T11:48:30.767Z,93458.50
2022-09-17T11:51:41.954Z,93440.72
2022-09-17T11:54:23.572Z,93424.59
2022-09-17T11:56:53.797Z,93426.41
2022-09-17T11:59:38.841Z,93435.84
2022-09-17T12:02:08.674Z,93421.06
2022-09-17T12:04:50.312Z,93403.44
2022-09-17T12:07:54.840Z,93414.44
2022-09-17T12:10:45.870Z,93415.78
2022-09-17T12:13:28.596Z,93403.34
2022-09-17T12:16:19.988Z,93402.00
2022-09-17T12:18:59.157Z,93414.19
2022-09-17T12:21:46.998Z,93427.50
2022-09-17T12:24:23.668Z,93446.53
2022-09-17T12:27:09.020Z,93448.03
2022-09-17T12:29:41.702Z,93446.72
2022-09-17T12:32:29.332Z,93436.78
2022-09-17T12:35:59.849Z,93431.66
2022-09-17T12:38:48.186Z,93413.78
2022-09-17T12:41:27.695Z,93426.72
2022-09-17T12:44:26.100Z,93452.59
2022-09-17T12:47:14.513Z,93466.84
2022-09-17T12:50:06.406Z,93466.66
2022-09-17T12:52:54.596Z,93467.84
2022-09-17T12:55:43.933Z,93461.81
2022-09-17T12:58:38.191Z,93443.50
2022-09-17T13:01:18.400Z,93435.72
2022-09-17T13:03:53.311Z,93418.19
2022-09-17T13:06:40.116Z,93413.25
2022-09-17T13:09:31.767Z,93419.13
2022-09-17T13:12:13.049Z,93437.97
2022-09-17T13:14:46.964Z,93436.09
2022-09-17T13:17:16.541Z,93434.31
2022-09-17T13:19:48.874Z,93423.34
2022-09-17T13:22:18.329Z,93427.97
2022-09-17T13:24:49.503Z,93416.06
2022-09-17T13:27:24.409Z,93415.34
2022-09-17T13:29:54.103Z,93415.34
2022-09-17T13:32:33.219Z,93420.97
2022-09-17T13:35:11.741Z,93426.28
2022-09-17T13:37:39.098Z,93423.09
2022-09-17T13:40:36.945Z,93431.97
2022-09-17T13:43:16.529Z,93445.41
2022-09-17T13:46:03.077Z,93444.84
2022-09-17T13:48:32.209Z,93428.72
2022-09-17T13:51:30.667Z,93446.56
2022-09-17T13:54:02.509Z,93461.41
2022-09-17T13:56:45.953Z,93469.44
2022-09-17T13:59:22.014Z,93467.97
2022-09-17T14:02:13.536Z,93468.63
2022-09-17T14:04:40.485Z,93472.25
2022-09-17T14:07:22.110Z,93488.28
2022-09-17T14:09:58.597Z,93486.25
2022-09-17T14:12:50.963Z,93487.38
2022-09-17T14:15:42.043Z,93478.34
2022-09-17T14:18:27.494Z,93484.56
2022-09-17T14:21:09.530Z,93486.00
2022-09-17T14:23:46.547Z,93487.16
2022-09-17T14:26:26.104Z,93498.19
2022-09-17T14:29:00.170Z,93500.56
2022-09-17T14:31:32.204Z,93506.19
2022-09-17T14:33:59.040Z,93500.22
2022-09-17T14:36:25.662Z,93508.91
2022-09-17T14:38:54.723Z,93524.00
2022-09-17T14:41:24.282Z,93516.88
2022-09-17T14:43:59.023Z,93502.38
2022-09-17T14:46:31.737Z,93507.66
2022-09-17T14:49:20.073Z,93504.41
2022-09-17T14:51:46.694Z,93492.56
2022-09-17T14:54:20.303Z,93503.72
2022-09-17T14:56:55.837Z,93487.91
2022-09-17T15:00:11.001Z,93493.91
2022-09-17T15:02:44.074Z,93496.13
2022-09-17T15:05:19.657Z,93498.88
2022-09-17T15:07:46.942Z,93497.38
2022-09-17T15:10:16.154Z,93511.16
2022-09-17T15:12:44.696Z,93506.53
2022-09-17T15:15:20.997Z,93503.38
2022-09-17T15:17:48.914Z,93501.44
2022-09-17T15:20:20.066Z,93511.38
2022-09-17T15:22:52.606Z,93504.84
2022-09-17T15:25:24.097Z,93502.34
2022-09-17T15:27:52.357Z,93513.03
2022-09-17T15:30:21.045Z,93521.81
2022-09-17T15:32:52.045Z,93524.97
2022-09-17T15:35:28.251Z,93533.91
2022-09-17T15:40:43.963Z,93532.31
2022-09-17T15:43:29.942Z,93532.75
2022-09-17T15:45:58.411Z,93531.53
2022-09-17T15:48:25.001Z,93539.25
2022-09-17T15:50:59.397Z,93547.03
2022-09-17T15:53:31.104Z,93542.94
2022-09-17T15:56:13.183Z,93533.91
2022-09-17T15:58:42.640Z,93535.00
2022-09-17T16:01:15.230Z,93538.47
2022-09-17T16:03:44.581Z,93539.03
2022-09-17T16:06:20.892Z,93537.69
2022-09-17T16:08:52.411Z,93532.16
2022-09-17T16:11:21.403Z,93527.09
2022-09-17T16:13:51.747Z,93529.53
2022-09-17T16:16:21.857Z,93525.59
2022-09-17T16:18:49.476Z,93530.56
2022-09-17T16:21:17.979Z,93534.44
2022-09-17T16:23:44.896Z,93529.34
2022-09-17T16:26:18.578Z,93537.03
2022-09-17T16:28:50.178Z,93539.84
2022-09-17T16:31:16.950Z,93535.66
2022-09-17T16:33:43.580Z,93536.47
2022-09-17T16:36:10.557Z,93539.69
2022-09-17T16:38:38.903Z,93553.66
2022-09-17T16:41:05.993Z,93544.78
2022-09-17T16:43:33.882Z,93548.47
2022-09-17T16:46:08.345Z,93559.97
2022-09-17T16:48:35.055Z,93548.00
2022-09-17T16:51:09.801Z,93546.22
2022-09-17T16:53:36.791Z,93555.41
2022-09-17T16:56:10.497Z,93567.78
2022-09-17T16:58:37.186Z,93558.94
2022-09-17T17:01:11.419Z,93565.63
2022-09-17T17:03:38.102Z,93572.47
2022-09-17T17:06:04.924Z,93558.06
2022-09-17T17:08:32.089Z,93562.34
2022-09-17T17:10:59.183Z,93558.75
2022-09-17T17:13:27.686Z,93561.44
2022-09-17T17:15:54.656Z,93539.53
2022-09-17T17:18:21.962Z,93537.13
2022-09-17T17:20:49.028Z,93537.75
2022-09-17T17:23:16.407Z,93529.06
2022-09-17T17:25:43.017Z,93520.41
2022-09-17T17:28:09.782Z,93526.06
2022-09-17T17:30:36.480Z,93530.59
2022-09-17T17:33:04.170Z,93526.22
2022-09-17T17:35:30.951Z,93528.75
2022-09-17T17:37:57.606Z,93539.09
2022-09-17T17:40:24.479Z,93536.56
2022-09-17T17:42:54.809Z,93525.56
2022-09-17T17:45:21.840Z,93518.69
2022-09-17T17:47:48.549Z,93516.09
2022-09-17T17:50:16.096Z,93517.84
2022-09-17T17:52:47.996Z,93529.66
2022-09-17T17:55:15.926Z,93542.53
2022-09-17T17:57:42.669Z,93545.03
2022-09-17T18:00:12.559Z,93557.31
2022-09-17T18:02:40.213Z,93576.88
2022-09-17T18:05:07.433Z,93578.44
2022-09-17T18:07:34.110Z,93577.78
2022-09-17T18:10:00.830Z,93582.16
2022-09-17T18:12:27.558Z,93580.78
2022-09-17T18:14:54.285Z,93578.72
2022-09-17T18:17:21.162Z,93586.50
2022-09-17T18:19:47.859Z,93598.25
2022-09-17T18:22:14.600Z,93601.63
2022-09-17T18:24:41.272Z,93619.16
2022-09-17T18:27:07.868Z,93626.00
2022-09-17T18:29:34.464Z,93629.13
2022-09-17T18:32:01.360Z,93635.31
2022-09-17T18:34:27.914Z,93644.97
2022-09-17T18:36:54.519Z,93636.84
2022-09-17T18:42:08.680Z,93630.19
2022-09-17T18:44:35.418Z,93636.34
2022-09-17T18:47:02.020Z,93641.97
2022-09-17T18:49:28.727Z,93645.38
2022-09-17T18:51:55.337Z,93648.13
2022-09-17T18:54:21.937Z,93658.53
2022-09-17T18:56:48.516Z,93658.94
2022-09-17T18:59:15.129Z,93659.69
2022-09-17T19:01:41.755Z,93666.22
2022-09-17T19:04:08.513Z,93652.69
2022-09-17T19:06:35.729Z,93651.34
2022-09-17T19:09:03.745Z,93655.28
2022-09-17T19:11:30.567Z,93655.97
2022-09-17T19:13:57.235Z,93666.75
2022-09-17T19:16:24.130Z,93672.34
2022-09-17T19:18:50.880Z,93676.66
2022-09-17T19:21:21.618Z,93690.28
2022-09-17T19:23:50.255Z,93680.09
2022-09-17T19:26:22.349Z,93672.38
2022-09-17T19:28:52.601Z,93677.03
2022-09-17T19:31:19.602Z,93667.63
2022-09-17T19:33:46.980Z,93674.00
2022-09-17T19:36:15.804Z,93666.13
2022-09-17T19:38:42.503Z,93661.75
2022-09-17T19:41:14.975Z,93670.81
2022-09-17T19:43:41.856Z,93682.69
2022-09-17T19:46:11.447Z,93677.75
2022-09-17T19:48:43.827Z,93670.00
2022-09-17T19:51:10.625Z,93679.63
2022-09-17T19:53:37.271Z,93673.59
2022-09-17T19:56:03.924Z,93678.75
2022-09-17T19:58:30.631Z,93688.38
2022-09-17T20:00:58.494Z,93690.09
2022-09-17T20:03:25.887Z,93690.56
2022-09-17T20:06:04.021Z,93678.28
2022-09-17T20:08:30.828Z,93682.63
2022-09-17T20:11:04.683Z,93687.69
2022-09-17T20:13:31.632Z,93690.97
2022-09-17T20:16:10.311Z,93683.22
2022-09-17T20:18:37.304Z,93668.13
2022-09-17T20:21:11.226Z,93673.13
2022-09-17T20:23:37.835Z,93678.38
2022-09-17T20:26:05.028Z,93669.72
2022-09-17T20:28:32.214Z,93667.72
2022-09-17T20:31:01.916Z,93671.13
2022-09-17T20:33:28.968Z,93671.34
2022-09-17T20:36:03.099Z,93667.34
2022-09-17T20:41:17.300Z,93665.97
2022-09-17T20:43:49.066Z,93672.97
2022-09-17T20:46:16.883Z,93675.59
2022-09-17T20:48:43.598Z,93693.78
2022-09-17T20:51:15.870Z,93669.47
2022-09-17T20:53:43.074Z,93667.66
2022-09-17T20:56:15.339Z,93667.38
2022-09-17T20:58:51.858Z,93670.63
2022-09-17T21:01:21.942Z,93674.47
2022-09-17T21:03:52.707Z,93674.19
2022-09-17T21:06:21.505Z,93674.00
2022-09-17T21:08:48.782Z,93680.25
2022-09-17T21:11:16.752Z,93669.38
2022-09-17T21:13:44.852Z,93668.97
2022-09-17T21:16:12.363Z,93665.75
2022-09-17T21:18:40.296Z,93673.28
2022-09-17T21:21:09.171Z,93672.91
2022-09-17T21:23:37.922Z,93662.78
2022-09-17T21:26:11.710Z,93662.97
2022-09-17T21:28:39.546Z,93654.03
2022-09-17T21:31:13.236Z,93658.91
2022-09-17T21:33:40.929Z,93663.41
2022-09-17T21:36:12.404Z,93653.25
2022-09-17T21:38:39.095Z,93652.72
2022-09-17T21:41:09.524Z,93646.41
2022-09-17T21:43:36.786Z,93650.69
2022-09-17T21:46:09.500Z,93643.13
2022-09-17T21:48:42.113Z,93636.56
2022-09-17T21:51:11.216Z,93631.63
2022-09-17T21:53:37.862Z,93624.31
2022-09-17T21:56:10.380Z,93619.69
2022-09-17T21:58:37.018Z,93612.59
2022-09-17T22:01:09.579Z,93632.47
2022-09-17T22:03:36.745Z,93615.59
2022-09-17T22:06:05.285Z,93612.03
2022-09-17T22:08:32.864Z,93609.03
2022-09-17T22:11:16.818Z,93610.69
2022-09-17T22:13:52.375Z,93617.81
2022-09-17T22:16:19.192Z,93629.41
2022-09-17T22:18:50.686Z,93624.56
2022-09-17T22:21:23.298Z,93625.56
2022-09-17T22:23:51.775Z,93629.34
2022-09-17T22:26:19.546Z,93617.56
2022-09-17T22:28:46.144Z,93613.41
2022-09-17T22:31:13.291Z,93612.19
2022-09-17T22:33:44.266Z,93602.63
2022-09-17T22:36:16.439Z,93603.56
2022-09-17T22:38:46.739Z,93603.56
2022-09-17T22:41:15.277Z,93615.69
2022-09-17T22:43:41.865Z,93623.28
2022-09-17T22:46:20.814Z,93620.94
2022-09-17T22:48:47.865Z,93617.06
2022-09-17T22:51:14.977Z,93613.66
2022-09-17T22:53:42.031Z,93619.81
2022-09-17T22:56:12.028Z,93621.34
2022-09-17T22:58:38.876Z,93618.78
2022-09-17T23:01:15.581Z,93615.78
2022-09-17T23:03:43.331Z,93616.78
2022-09-17T23:06:13.346Z,93622.81
2022-09-17T23:08:40.860Z,93630.47
2022-09-17T23:11:16.061Z,93634.66
2022-09-17T23:13:42.710Z,93622.97
2022-09-17T23:16:10.002Z,93634.69
2022-09-17T23:18:37.339Z,93635.06
2022-09-17T23:21:09.818Z,93626.31
2022-09-17T23:23:37.489Z,93636.53
2022-09-17T23:26:12.919Z,93632.63
2022-09-17T23:28:39.919Z,93628.25
2022-09-17T23:31:27.158Z,93624.25
2022-09-17T23:33:55.380Z,93624.50
2022-09-17T23:36:30.449Z,93617.50
2022-09-17T23:38:57.982Z,93622.69
2022-09-17T23:41:25.539Z,93617.34
2022-09-17T23:43:54.599Z,93613.47
2022-09-17T23:46:22.692Z,93618.06
2022-09-17T23:48:51.781Z,93620.44
2022-09-17T23:51:18.443Z,93615.75
2022-09-17T23:53:45.308Z,93616.50
2022-09-17T23:56:14.222Z,93613.94
2022-09-17T23:58:41.169Z,93611.78
